This is the latest recevied weather packets stored in our database for station/object KF0KFL-13. If no packets are shown the sender has not sent any weather packets the latest 10 day(s).
| Time | Temp. | Humidity | Pressure | Rain* | Wind** | Luminosity | Snow |
|---|---|---|---|---|---|---|---|
| 1777278247 | 11.67° C | 89% | 1005.5 hPa | 0.51 mm | - | 0 W/m² | - |
| 1777278200 | 11.67° C | 89% | 1005.5 hPa | 0.51 mm | - | 0 W/m² | - |
| 1777276970 | 11.67° C | 88% | 1005.9 hPa | 1.52 mm | - | 0 W/m² | - |
| 1777275781 | 11.67° C | 91% | 1006.4 hPa | 1.52 mm | - | 0 W/m² | - |
| 1777275740 | 11.67° C | 91% | 1006.4 hPa | 1.52 mm | - | 0 W/m² | - |
| 1777274510 | 11.67° C | 90% | 1007.2 hPa | 1.02 mm | - | 0 W/m² | - |
| 1777273280 | 12.78° C | 82% | 1008 hPa | 0 mm | - | 0 W/m² | - |
| 1777272082 | 13.33° C | 76% | 1008.3 hPa | 0 mm | - | 0 W/m² | - |
| 1777272049 | 13.33° C | 76% | 1008.3 hPa | 0 mm | - | 0 W/m² | - |
| 1777270820 | 12.22° C | 79% | 1008.4 hPa | 0 mm | - | 0 W/m² | - |
| 1777269590 | 12.22° C | 79% | 1008.6 hPa | 0 mm | - | 0 W/m² | - |
| 1777268389 | 11.67° C | 79% | 1009.3 hPa | 0 mm | - | 0 W/m² | - |
| 1777267159 | 11.67° C | 78% | 1009.2 hPa | 0 mm | - | 0 W/m² | - |
| 1777265929 | 11.67° C | 77% | 1009.7 hPa | 0 mm | - | 0 W/m² | - |
| 1777264699 | 11.67° C | 77% | 1010 hPa | 0 mm | - | 0 W/m² | - |
| 1777263499 | 11.11° C | 77% | 1010 hPa | 0 mm | - | 0 W/m² | - |
| 1777262331 | 11.11° C | 77% | 1010.4 hPa | 0 mm | - | 0 W/m² | - |
| 1777262299 | 11.11° C | 77% | 1010.4 hPa | 0 mm | - | 0 W/m² | - |
| 1777261069 | 11.11° C | 77% | 1010.8 hPa | 0 mm | - | 0 W/m² | - |
| 1777259839 | 11.11° C | 76% | 1011.1 hPa | 0 mm | - | 0 W/m² | - |
| 1777258639 | 11.11° C | 76% | 1011.8 hPa | 0 mm | - | 0 W/m² | - |
| 1777257409 | 11.11° C | 77% | 1012.1 hPa | 0 mm | - | 0 W/m² | - |
| 1777256209 | 11.11° C | 77% | 1012.1 hPa | 0 mm | - | 0 W/m² | - |
| 1777255009 | 11.11° C | 77% | 1012.3 hPa | 0 mm | - | 0 W/m² | - |
| 1777253779 | 11.67° C | 77% | 1011.8 hPa | 0 mm | - | 0 W/m² | - |
* Rain latest hour (hover to see other rain measurements)
** Current wind speed in m/s (hover to see current wind gust speed)